Time;durP1;ratioP1;P1;durP2;ratioP2;P2;SDS_P1;SDS_P2;PMS_P1;PMS_P2;Temp;Humidity;BMP_temperature;BMP_pressure;BME280_temperature;BME280_humidity;BME280_pressure;Samples;Min_cycle;Max_cycle;Signal;HPM_P1;HPM_P2
2021/10/01 00:00:18;;;;;;;;;;;20.70;65.00;;;;;;5035269;28;1280;-71
2021/10/01 00:02:44;;;;;;;;;;;20.70;65.10;;;;;;5035928;28;1256;-71
2021/10/01 00:05:09;;;;;;;;;;;20.70;65.10;;;;;;5035025;28;1413;-71
2021/10/01 00:07:34;;;;;;;;;;;20.60;65.00;;;;;;5018216;28;1356;-71
2021/10/01 00:10:00;;;;;;;;;;;20.70;65.10;;;;;;5035117;28;1379;-71
2021/10/01 00:12:25;;;;;;;;;;;20.70;65.10;;;;;;5035593;28;1317;-69
2021/10/01 00:14:51;;;;;;;;;;;20.70;65.20;;;;;;5017460;28;1392;-69
2021/10/01 00:17:16;;;;;;;;;;;20.60;65.20;;;;;;5035750;28;1914;-69
2021/10/01 00:19:42;;;;;;;;;;;20.60;65.20;;;;;;5035688;28;1306;-69
2021/10/01 00:22:07;;;;;;;;;;;20.60;65.20;;;;;;5034680;28;1268;-69
2021/10/01 00:24:33;;;;;;;;;;;20.60;65.30;;;;;;5035639;28;1269;-69
2021/10/01 00:26:58;;;;;;;;;;;20.60;65.30;;;;;;5035518;28;1297;-69
2021/10/01 00:29:24;;;;;;;;;;;20.60;65.40;;;;;;5017731;28;1298;-69
2021/10/01 00:31:49;;;;;;;;;;;20.60;65.40;;;;;;5034918;28;1299;-71
2021/10/01 00:34:15;;;;;;;;;;;20.60;65.40;;;;;;5035266;28;1282;-70
2021/10/01 00:36:40;;;;;;;;;;;20.60;65.40;;;;;;5034490;28;1419;-69
2021/10/01 00:39:06;;;;;;;;;;;20.60;65.50;;;;;;5034659;28;1890;-70
2021/10/01 00:41:31;;;;;;;;;;;20.60;65.50;;;;;;5034390;28;1349;-70
2021/10/01 00:43:57;;;;;;;;;;;20.60;65.60;;;;;;5035163;28;1285;-70
2021/10/01 00:46:22;;;;;;;;;;;20.60;65.60;;;;;;5017192;28;1340;-70
2021/10/01 00:48:48;;;;;;;;;;;20.60;65.60;;;;;;5034662;28;1330;-70
2021/10/01 00:51:14;;;;;;;;;;;20.60;65.60;;;;;;5033671;28;1229;-70
2021/10/01 00:53:39;;;;;;;;;;;20.60;65.70;;;;;;5017281;28;1250;-70
2021/10/01 00:56:05;;;;;;;;;;;20.60;65.70;;;;;;5034523;28;1398;-70
2021/10/01 00:58:30;;;;;;;;;;;20.60;65.70;;;;;;5034385;28;1894;-70
2021/10/01 01:03:34;;;;;;;;;;;20.60;65.80;;;;;;5019027;28;1328;-70
2021/10/01 01:06:09;;;;;;;;;;;20.60;65.80;;;;;;5034257;28;1620;-70
2021/10/01 01:08:42;;;;;;;;;;;20.60;65.80;;;;;;5017014;28;1381;-70
2021/10/01 01:11:15;;;;;;;;;;;20.60;65.80;;;;;;5016273;28;1256;-70
2021/10/01 01:13:45;;;;;;;;;;;20.60;65.90;;;;;;5016518;28;1334;-70
2021/10/01 01:16:12;;;;;;;;;;;20.60;65.90;;;;;;5016982;28;1322;-70
2021/10/01 01:18:40;;;;;;;;;;;20.60;66.00;;;;;;5016509;28;1910;-70
2021/10/01 01:21:05;;;;;;;;;;;20.60;66.00;;;;;;5015943;28;1193;-71
2021/10/01 01:23:33;;;;;;;;;;;20.60;66.00;;;;;;5034374;28;1302;-71
2021/10/01 01:26:04;;;;;;;;;;;20.60;66.00;;;;;;5034029;28;1424;-71
2021/10/01 01:28:32;;;;;;;;;;;20.60;66.10;;;;;;5016869;28;1360;-71
2021/10/01 01:31:00;;;;;;;;;;;20.60;66.00;;;;;;5015413;28;1081;-71
2021/10/01 01:33:25;;;;;;;;;;;20.60;66.10;;;;;;5016409;28;1284;-71
2021/10/01 01:35:51;;;;;;;;;;;20.50;66.10;;;;;;5016152;28;1370;-71
2021/10/01 01:38:39;;;;;;;;;;;20.60;66.10;;;;;;5016668;28;1902;-71
2021/10/01 01:41:05;;;;;;;;;;;20.60;66.10;;;;;;5034051;28;1261;-70
2021/10/01 01:43:30;;;;;;;;;;;20.60;66.10;;;;;;5016455;28;1278;-70
2021/10/01 01:45:56;;;;;;;;;;;20.60;66.10;;;;;;5016044;28;1372;-70
2021/10/01 01:48:22;;;;;;;;;;;20.60;66.10;;;;;;5033591;28;1264;-72
2021/10/01 01:50:47;;;;;;;;;;;20.60;66.00;;;;;;5015264;28;1557;-71
2021/10/01 01:53:13;;;;;;;;;;;20.60;66.00;;;;;;5016275;28;1421;-71
2021/10/01 01:55:38;;;;;;;;;;;20.60;65.90;;;;;;5015780;28;1365;-71
2021/10/01 01:58:04;;;;;;;;;;;20.60;65.80;;;;;;5015355;28;1944;-71
2021/10/01 02:00:29;;;;;;;;;;;20.70;65.90;;;;;;5032831;28;1303;-71
2021/10/01 02:02:55;;;;;;;;;;;20.70;65.80;;;;;;5016100;28;1289;-71
2021/10/01 02:05:20;;;;;;;;;;;20.70;65.70;;;;;;5015559;28;1346;-71
2021/10/01 02:07:46;;;;;;;;;;;20.70;65.70;;;;;;5016148;28;1270;-71
2021/10/01 02:10:12;;;;;;;;;;;20.80;65.70;;;;;;5014832;28;1347;-71
2021/10/01 02:12:37;;;;;;;;;;;20.80;65.60;;;;;;5015428;28;1278;-71
2021/10/01 02:15:03;;;;;;;;;;;20.80;65.60;;;;;;5015492;28;1291;-71
2021/10/01 02:17:29;;;;;;;;;;;20.80;65.50;;;;;;5015810;28;1918;-71
2021/10/01 02:19:55;;;;;;;;;;;20.80;65.50;;;;;;5014879;28;1085;-71
2021/10/01 02:22:20;;;;;;;;;;;20.80;65.40;;;;;;5015202;28;2101;-71
2021/10/01 02:24:46;;;;;;;;;;;20.80;65.40;;;;;;5015436;28;1304;-71
2021/10/01 02:27:20;;;;;;;;;;;20.90;65.40;;;;;;5015388;28;1331;-70
2021/10/01 02:29:53;;;;;;;;;;;20.90;65.40;;;;;;5033060;28;1325;-70
2021/10/01 02:32:19;;;;;;;;;;;20.90;65.40;;;;;;5014875;28;1349;-70
2021/10/01 02:34:45;;;;;;;;;;;20.90;65.30;;;;;;5033049;28;1348;-70
2021/10/01 02:37:10;;;;;;;;;;;20.90;65.30;;;;;;5032928;28;1321;-70
2021/10/01 02:39:36;;;;;;;;;;;20.90;65.30;;;;;;5015072;28;1954;-70
2021/10/01 02:42:02;;;;;;;;;;;20.90;65.30;;;;;;5031670;28;1271;-70
2021/10/01 02:44:28;;;;;;;;;;;20.90;65.20;;;;;;5032598;28;1348;-70
2021/10/01 02:46:53;;;;;;;;;;;20.90;65.30;;;;;;5015122;28;1313;-71
2021/10/01 02:49:18;;;;;;;;;;;20.90;65.20;;;;;;5032525;28;1332;-71
2021/10/01 02:51:48;;;;;;;;;;;20.90;65.20;;;;;;5031695;28;1327;-71
2021/10/01 02:54:14;;;;;;;;;;;20.90;65.20;;;;;;5014690;28;1291;-71
2021/10/01 02:56:40;;;;;;;;;;;20.90;65.20;;;;;;5014762;28;1290;-71
2021/10/01 02:59:05;;;;;;;;;;;20.90;65.20;;;;;;5014503;28;1978;-71
2021/10/01 03:01:31;;;;;;;;;;;20.90;65.20;;;;;;5014127;28;1222;-70
2021/10/01 03:04:04;;;;;;;;;;;20.90;65.30;;;;;;5014427;28;1294;-69
2021/10/01 03:06:30;;;;;;;;;;;20.90;65.20;;;;;;5014580;28;1325;-69
2021/10/01 03:08:56;;;;;;;;;;;20.90;65.30;;;;;;5014509;28;1361;-69
2021/10/01 03:11:26;;;;;;;;;;;20.90;65.40;;;;;;5013823;28;1295;-69
2021/10/01 03:13:51;;;;;;;;;;;20.90;65.40;;;;;;5014392;28;1424;-69
2021/10/01 03:16:17;;;;;;;;;;;20.90;65.40;;;;;;5014035;28;1284;-69
2021/10/01 03:18:42;;;;;;;;;;;20.90;65.50;;;;;;5014875;28;1906;-69
2021/10/01 03:21:08;;;;;;;;;;;20.90;65.40;;;;;;5031317;28;1173;-69
2021/10/01 03:23:33;;;;;;;;;;;20.90;65.50;;;;;;5013991;28;1308;-69
2021/10/01 03:25:59;;;;;;;;;;;20.90;65.50;;;;;;5014274;28;1334;-69
2021/10/01 03:28:24;;;;;;;;;;;20.90;65.50;;;;;;5014537;28;1473;-70
2021/10/01 03:30:50;;;;;;;;;;;20.90;65.50;;;;;;5031237;28;1305;-70
2021/10/01 03:33:15;;;;;;;;;;;20.90;65.60;;;;;;5031900;28;1287;-70
2021/10/01 03:35:42;;;;;;;;;;;20.90;65.60;;;;;;5014111;28;1336;-70
2021/10/01 03:38:11;;;;;;;;;;;20.90;65.70;;;;;;5031764;28;1902;-70
2021/10/01 03:40:36;;;;;;;;;;;20.80;65.70;;;;;;5031426;28;1289;-70
2021/10/01 03:43:01;;;;;;;;;;;20.80;65.70;;;;;;5032097;28;1375;-70
2021/10/01 03:45:27;;;;;;;;;;;20.80;65.70;;;;;;5031574;28;1310;-72
2021/10/01 03:47:52;;;;;;;;;;;20.80;65.80;;;;;;5031796;28;1332;-72
2021/10/01 03:50:18;;;;;;;;;;;20.80;65.80;;;;;;5031456;28;1298;-72
2021/10/01 03:52:44;;;;;;;;;;;20.80;65.80;;;;;;5031719;28;1336;-72
2021/10/01 03:55:11;;;;;;;;;;;20.80;65.80;;;;;;5031902;28;1268;-72
2021/10/01 03:57:37;;;;;;;;;;;20.80;65.90;;;;;;5031691;28;1915;-72
2021/10/01 04:00:06;;;;;;;;;;;20.80;66.00;;;;;;5013748;28;1292;-72
2021/10/01 04:02:31;;;;;;;;;;;20.80;66.00;;;;;;5031332;28;1302;-72
2021/10/01 04:04:56;;;;;;;;;;;20.80;66.00;;;;;;5032069;28;1351;-72
2021/10/01 04:07:22;;;;;;;;;;;20.80;66.10;;;;;;5026569;23;3742;-67
2021/10/01 04:09:47;;;;;;;;;;;20.80;66.10;;;;;;5032004;28;1495;-67
2021/10/01 04:12:13;;;;;;;;;;;20.80;66.00;;;;;;5030772;28;1385;-68
2021/10/01 04:14:38;;;;;;;;;;;20.80;66.00;;;;;;5032118;28;1237;-68
2021/10/01 04:17:04;;;;;;;;;;;20.80;66.10;;;;;;5000227;28;1753;-68
2021/10/01 04:19:29;;;;;;;;;;;20.80;66.00;;;;;;5011897;28;1934;-68
2021/10/01 04:21:55;;;;;;;;;;;20.80;66.00;;;;;;5011969;28;1642;-68
2021/10/01 04:24:20;;;;;;;;;;;20.80;65.90;;;;;;5013544;28;1389;-68
2021/10/01 04:26:46;;;;;;;;;;;20.80;65.90;;;;;;5015308;28;1689;-67
2021/10/01 04:29:11;;;;;;;;;;;20.90;66.00;;;;;;5015551;28;1359;-68
2021/10/01 04:31:37;;;;;;;;;;;20.90;65.90;;;;;;5014527;28;1399;-68
2021/10/01 04:34:04;;;;;;;;;;;20.90;66.70;;;;;;5015496;28;1578;-68
2021/10/01 04:36:32;;;;;;;;;;;20.90;65.80;;;;;;4998248;28;1420;-68
2021/10/01 04:38:57;;;;;;;;;;;20.90;65.80;;;;;;5015583;28;1951;-68
2021/10/01 04:41:22;;;;;;;;;;;20.90;65.80;;;;;;5014877;28;1441;-68
2021/10/01 04:43:48;;;;;;;;;;;20.90;65.70;;;;;;4997542;28;1149;-68
2021/10/01 04:46:13;;;;;;;;;;;20.90;65.70;;;;;;5015501;28;1711;-68
2021/10/01 04:48:39;;;;;;;;;;;20.90;65.70;;;;;;4997958;28;1400;-68
2021/10/01 04:51:04;;;;;;;;;;;21.00;65.70;;;;;;5012409;28;1681;-69
2021/10/01 04:53:29;;;;;;;;;;;21.00;65.70;;;;;;4997693;28;1637;-68
2021/10/01 04:55:55;;;;;;;;;;;21.00;65.60;;;;;;5013246;28;1442;-68
2021/10/01 04:58:20;;;;;;;;;;;21.00;65.60;;;;;;5015051;28;1902;-68
2021/10/01 05:00:46;;;;;;;;;;;21.00;65.60;;;;;;5014048;28;1513;-68
2021/10/01 05:03:11;;;;;;;;;;;21.00;65.60;;;;;;5015153;28;1387;-68
2021/10/01 05:05:37;;;;;;;;;;;21.00;65.60;;;;;;5014368;28;1354;-68
2021/10/01 05:08:03;;;;;;;;;;;21.00;65.60;;;;;;5015304;28;1369;-68
2021/10/01 05:10:28;;;;;;;;;;;21.00;65.60;;;;;;5014298;28;1296;-68
2021/10/01 05:12:54;;;;;;;;;;;21.00;65.50;;;;;;5014619;28;1360;-69
2021/10/01 05:15:19;;;;;;;;;;;21.00;65.50;;;;;;5028106;28;1602;-68
2021/10/01 05:17:45;;;;;;;;;;;21.00;65.50;;;;;;4992337;28;1902;-69
2021/10/01 05:20:10;;;;;;;;;;;21.00;65.50;;;;;;5005090;28;1974;-69
2021/10/01 05:22:36;;;;;;;;;;;21.00;65.50;;;;;;5010188;28;1546;-68
2021/10/01 05:25:02;;;;;;;;;;;21.10;65.50;;;;;;5019722;28;1452;-68
2021/10/01 05:27:28;;;;;;;;;;;21.10;65.50;;;;;;5008069;28;1415;-68
2021/10/01 05:29:53;;;;;;;;;;;21.10;65.50;;;;;;5015962;28;1471;-68
2021/10/01 05:32:19;;;;;;;;;;;21.10;65.50;;;;;;5013854;28;1467;-70
2021/10/01 05:34:44;;;;;;;;;;;21.10;65.50;;;;;;4996179;28;1627;-71
2021/10/01 05:37:09;;;;;;;;;;;21.10;65.50;;;;;;5012797;28;1319;-71
2021/10/01 05:39:35;;;;;;;;;;;21.10;65.50;;;;;;5013518;28;1886;-69
2021/10/01 05:42:00;;;;;;;;;;;21.10;65.50;;;;;;5012686;28;1423;-69
2021/10/01 05:44:26;;;;;;;;;;;21.10;65.50;;;;;;5013504;28;1468;-67
2021/10/01 05:46:51;;;;;;;;;;;21.10;65.50;;;;;;5013265;28;1373;-67
2021/10/01 05:49:23;;;;;;;;;;;21.10;66.30;;;;;;5012889;28;1390;-68
2021/10/01 05:51:52;;;;;;;;;;;21.10;65.50;;;;;;5012540;28;859;-68
2021/10/01 05:54:21;;;;;;;;;;;21.10;65.50;;;;;;5012890;28;1229;-69
2021/10/01 05:56:50;;;;;;;;;;;21.10;65.50;;;;;;4995400;28;1658;-70
2021/10/01 05:59:16;;;;;;;;;;;21.10;65.40;;;;;;4996504;28;1898;-70
2021/10/01 06:01:41;;;;;;;;;;;21.10;65.40;;;;;;4996342;28;1706;-70
2021/10/01 06:04:07;;;;;;;;;;;21.10;65.50;;;;;;5012741;28;1387;-70
2021/10/01 06:06:32;;;;;;;;;;;21.10;65.40;;;;;;5012684;28;1380;-68
2021/10/01 06:08:58;;;;;;;;;;;21.10;65.40;;;;;;4995900;28;1187;-68
2021/10/01 06:11:23;;;;;;;;;;;21.10;63.40;;;;;;5011930;28;1627;-68
2021/10/01 06:13:49;;;;;;;;;;;21.10;60.70;;;;;;5012872;28;1406;-68
2021/10/01 06:16:14;;;;;;;;;;;21.10;61.30;;;;;;5012475;28;1368;-68
2021/10/01 06:18:39;;;;;;;;;;;21.10;60.50;;;;;;5012702;28;1970;-67
2021/10/01 06:21:05;;;;;;;;;;;21.10;60.00;;;;;;5011850;28;1459;-67
2021/10/01 06:23:34;;;;;;;;;;;21.10;59.90;;;;;;5008664;28;1856;-67
2021/10/01 06:26:00;;;;;;;;;;;21.10;59.70;;;;;;4992788;28;1397;-67
2021/10/01 06:28:25;;;;;;;;;;;21.10;59.40;;;;;;5010092;28;1476;-66
2021/10/01 06:30:50;;;;;;;;;;;21.00;59.10;;;;;;5011578;28;1384;-67
2021/10/01 06:33:16;;;;;;;;;;;21.00;58.70;;;;;;4995148;28;1708;-67
2021/10/01 06:35:43;;;;;;;;;;;21.00;59.20;;;;;;5011907;28;1372;-66
2021/10/01 06:38:10;;;;;;;;;;;21.00;58.50;;;;;;5012351;28;1982;-66
2021/10/01 06:40:36;;;;;;;;;;;21.00;58.20;;;;;;5013119;28;1631;-66
2021/10/01 06:43:06;;;;;;;;;;;21.00;58.10;;;;;;5012593;28;1684;-65
2021/10/01 06:45:32;;;;;;;;;;;21.00;57.70;;;;;;5012835;28;1376;-65
2021/10/01 06:51:15;;;;;;;;;;;21.00;57.80;;;;;;5011398;28;1343;-65
2021/10/01 07:45:44;;;;;;;;;;;20.80;54.60;;;;;;4991079;28;1327;-65
2021/10/01 08:21:04;;;;;;;;;;;20.70;53.90;;;;;;5015262;28;1209;-65
2021/10/01 08:23:30;;;;;;;;;;;20.60;54.10;;;;;;5015455;28;1330;-66
2021/10/01 08:25:55;;;;;;;;;;;20.60;54.30;;;;;;5015624;28;1374;-66
2021/10/01 08:28:21;;;;;;;;;;;20.60;54.10;;;;;;5015563;28;1315;-66
2021/10/01 08:30:46;;;;;;;;;;;20.60;53.60;;;;;;5015269;28;1290;-66
2021/10/01 08:33:11;;;;;;;;;;;20.60;53.90;;;;;;4998155;28;1117;-66
2021/10/01 08:35:37;;;;;;;;;;;20.60;54.40;;;;;;5015485;28;1341;-66
2021/10/01 08:38:03;;;;;;;;;;;20.60;53.30;;;;;;5015058;28;1895;-65
2021/10/01 08:40:29;;;;;;;;;;;20.60;53.40;;;;;;5015002;28;1286;-65
2021/10/01 08:42:54;;;;;;;;;;;20.60;53.90;;;;;;5015120;28;1343;-65
2021/10/01 08:45:20;;;;;;;;;;;20.60;54.00;;;;;;5015545;28;1066;-65
2021/10/01 08:47:45;;;;;;;;;;;20.60;53.80;;;;;;5015228;28;1401;-66
2021/10/01 08:50:11;;;;;;;;;;;20.50;52.60;;;;;;5014519;28;1269;-66
2021/10/01 08:52:37;;;;;;;;;;;20.50;53.70;;;;;;5014954;28;1328;-66
2021/10/01 08:55:03;;;;;;;;;;;20.50;53.90;;;;;;5015012;28;1336;-66
2021/10/01 08:57:29;;;;;;;;;;;20.50;53.80;;;;;;5014997;28;1323;-66
2021/10/01 08:59:54;;;;;;;;;;;20.50;53.30;;;;;;5014326;28;2322;-66
2021/10/01 09:02:20;;;;;;;;;;;20.50;53.40;;;;;;5014836;28;2067;-66
2021/10/01 09:04:45;;;;;;;;;;;20.50;53.70;;;;;;5015196;28;1101;-66
2021/10/01 09:07:11;;;;;;;;;;;20.50;53.30;;;;;;5014492;28;1354;-66
2021/10/01 09:09:40;;;;;;;;;;;20.50;52.60;;;;;;4997159;28;1320;-65
2021/10/01 09:12:06;;;;;;;;;;;20.50;53.50;;;;;;4996625;28;1094;-65
2021/10/01 09:14:40;;;;;;;;;;;20.40;53.70;;;;;;5015050;28;1166;-65
2021/10/01 09:17:12;;;;;;;;;;;20.40;54.00;;;;;;5014476;28;1315;-65
2021/10/01 09:19:38;;;;;;;;;;;20.40;52.20;;;;;;5014628;28;1914;-66
2021/10/01 09:22:04;;;;;;;;;;;20.40;52.30;;;;;;5014020;28;1718;-65
2021/10/01 09:24:29;;;;;;;;;;;20.40;51.90;;;;;;5014647;28;1365;-65
2021/10/01 09:26:55;;;;;;;;;;;20.40;51.30;;;;;;5014863;28;1301;-65
2021/10/01 09:29:28;;;;;;;;;;;20.40;52.10;;;;;;5014395;28;1124;-65
2021/10/01 09:31:54;;;;;;;;;;;20.40;52.10;;;;;;4996792;28;1250;-65
2021/10/01 09:34:22;;;;;;;;;;;20.40;52.90;;;;;;4996417;28;1246;-65
2021/10/01 09:36:57;;;;;;;;;;;20.30;52.40;;;;;;5014753;28;1289;-65
2021/10/01 09:39:26;;;;;;;;;;;20.30;53.20;;;;;;4997143;28;1970;-66
2021/10/01 09:41:51;;;;;;;;;;;20.30;53.40;;;;;;5014374;28;1395;-66
2021/10/01 09:44:19;;;;;;;;;;;20.30;53.00;;;;;;5011721;28;1767;-66
2021/10/01 09:46:46;;;;;;;;;;;20.30;52.30;;;;;;5016687;28;1722;-66
2021/10/01 09:49:14;;;;;;;;;;;20.30;51.80;;;;;;5006392;28;1294;-66
2021/10/01 09:51:39;;;;;;;;;;;20.30;52.90;;;;;;5005500;28;1619;-66
2021/10/01 09:54:08;;;;;;;;;;;20.30;50.90;;;;;;5012407;28;1332;-66
2021/10/01 09:56:34;;;;;;;;;;;20.30;50.30;;;;;;4995330;28;1302;-66
2021/10/01 09:59:09;;;;;;;;;;;20.30;50.10;;;;;;5012907;28;1944;-66
2021/10/01 10:01:36;;;;;;;;;;;20.30;50.50;;;;;;5012304;28;1262;-65
2021/10/01 10:04:14;;;;;;;;;;;20.30;51.60;;;;;;5013082;28;1365;-65
2021/10/01 10:06:43;;;;;;;;;;;20.20;52.70;;;;;;5012078;28;1328;-66
2021/10/01 10:09:08;;;;;;;;;;;20.30;51.80;;;;;;5012619;28;1405;-67
2021/10/01 10:11:37;;;;;;;;;;;20.20;53.00;;;;;;5012710;28;1438;-67
2021/10/01 10:14:02;;;;;;;;;;;20.30;53.30;;;;;;4994725;28;1257;-65
2021/10/01 10:16:31;;;;;;;;;;;20.30;52.80;;;;;;4994995;28;1401;-66
2021/10/01 10:18:57;;;;;;;;;;;20.30;53.40;;;;;;5013133;28;1902;-66
2021/10/01 10:21:22;;;;;;;;;;;20.30;53.30;;;;;;5011909;28;1183;-66
2021/10/01 10:23:48;;;;;;;;;;;20.30;53.30;;;;;;5013265;28;951;-66
2021/10/01 10:26:13;;;;;;;;;;;20.30;52.50;;;;;;5013140;28;1343;-66
2021/10/01 10:28:39;;;;;;;;;;;20.30;52.20;;;;;;5013549;28;1256;-66
2021/10/01 10:31:04;;;;;;;;;;;20.30;52.90;;;;;;5013012;28;1089;-66
2021/10/01 10:33:36;;;;;;;;;;;20.30;53.10;;;;;;5013081;28;1428;-66
2021/10/01 10:36:12;;;;;;;;;;;20.30;52.90;;;;;;5013139;28;1357;-66
2021/10/01 10:38:38;;;;;;;;;;;20.30;53.30;;;;;;4995625;28;1964;-67
2021/10/01 10:41:19;;;;;;;;;;;20.30;52.50;;;;;;4994883;28;1272;-66
2021/10/01 10:43:45;;;;;;;;;;;20.30;53.00;;;;;;5011776;28;1275;-67
2021/10/01 10:46:23;;;;;;;;;;;20.30;53.20;;;;;;4995650;28;1306;-67
2021/10/01 10:48:56;;;;;;;;;;;20.30;52.80;;;;;;4995859;28;1412;-67
2021/10/01 10:51:22;;;;;;;;;;;20.30;52.70;;;;;;4994483;28;1570;-67
2021/10/01 10:53:52;;;;;;;;;;;20.30;52.80;;;;;;5012964;28;1302;-67
2021/10/01 10:56:19;;;;;;;;;;;20.30;52.50;;;;;;4995368;28;1477;-67
2021/10/01 10:58:45;;;;;;;;;;;20.30;53.00;;;;;;5012625;28;1960;-67
2021/10/01 11:01:14;;;;;;;;;;;20.30;53.30;;;;;;5003041;28;982;-66
2021/10/01 11:03:40;;;;;;;;;;;20.30;53.00;;;;;;5008878;28;1414;-67
2021/10/01 11:06:08;;;;;;;;;;;20.30;52.70;;;;;;5011322;28;1415;-67
2021/10/01 11:08:34;;;;;;;;;;;20.30;53.40;;;;;;5013079;28;1286;-67
2021/10/01 11:10:59;;;;;;;;;;;20.30;53.20;;;;;;5012102;28;1255;-66
2021/10/01 11:13:25;;;;;;;;;;;20.30;53.50;;;;;;5012696;28;1288;-67
2021/10/01 11:16:09;;;;;;;;;;;20.30;53.40;;;;;;5012698;28;1380;-67
2021/10/01 11:18:35;;;;;;;;;;;20.30;53.50;;;;;;5012457;28;1958;-66
2021/10/01 11:21:01;;;;;;;;;;;20.30;53.00;;;;;;5012207;28;1185;-66
2021/10/01 11:23:26;;;;;;;;;;;20.30;53.10;;;;;;5012527;28;1333;-66
2021/10/01 11:25:52;;;;;;;;;;;20.30;53.50;;;;;;5012781;28;1345;-66
2021/10/01 11:28:18;;;;;;;;;;;20.30;53.50;;;;;;5012464;28;1145;-66
2021/10/01 11:30:50;;;;;;;;;;;20.30;53.30;;;;;;4994503;28;1081;-66
2021/10/01 11:33:15;;;;;;;;;;;20.30;53.00;;;;;;5012346;28;1365;-66
2021/10/01 11:35:54;;;;;;;;;;;20.30;53.40;;;;;;5003981;28;1253;-66
2021/10/01 11:38:29;;;;;;;;;;;20.30;53.30;;;;;;5004174;28;1957;-66
2021/10/01 11:41:14;;;;;;;;;;;20.30;52.50;;;;;;4999236;28;1347;-66
2021/10/01 11:43:46;;;;;;;;;;;20.30;53.10;;;;;;5016557;28;966;-66
2021/10/01 11:46:12;;;;;;;;;;;20.30;52.70;;;;;;5016297;28;1356;-67
2021/10/01 11:48:38;;;;;;;;;;;20.30;52.50;;;;;;5016480;28;1072;-66
2021/10/01 11:51:03;;;;;;;;;;;20.30;52.50;;;;;;5016573;28;1313;-66
2021/10/01 11:53:34;;;;;;;;;;;20.30;52.90;;;;;;4998806;28;1259;-66
2021/10/01 11:56:01;;;;;;;;;;;20.30;52.90;;;;;;5015788;28;1335;-66
2021/10/01 11:58:27;;;;;;;;;;;20.30;52.50;;;;;;4998131;28;1902;-66
2021/10/01 12:00:52;;;;;;;;;;;20.30;53.20;;;;;;5015824;28;1384;-66
2021/10/01 12:03:18;;;;;;;;;;;20.30;53.00;;;;;;5016033;28;1380;-66
2021/10/01 12:05:50;;;;;;;;;;;20.30;52.90;;;;;;4998651;28;1313;-66
2021/10/01 12:08:17;;;;;;;;;;;20.30;52.70;;;;;;5015902;28;1308;-66
2021/10/01 12:10:43;;;;;;;;;;;20.30;52.50;;;;;;4997931;28;1318;-66
2021/10/01 12:13:21;;;;;;;;;;;20.30;52.80;;;;;;5015962;28;1239;-66
2021/10/01 12:15:54;;;;;;;;;;;20.30;52.80;;;;;;4999174;28;1303;-66
2021/10/01 12:18:38;;;;;;;;;;;20.30;51.50;;;;;;5015777;28;1910;-66
2021/10/01 12:21:07;;;;;;;;;;;20.30;52.10;;;;;;5015256;28;1201;-66
2021/10/01 12:23:35;;;;;;;;;;;20.30;52.00;;;;;;5015426;28;1370;-66
2021/10/01 12:26:20;;;;;;;;;;;20.30;51.20;;;;;;4998814;28;1311;-66
2021/10/01 12:29:01;;;;;;;;;;;20.30;50.80;;;;;;4997937;28;1322;-66
2021/10/01 12:31:29;;;;;;;;;;;20.30;50.60;;;;;;5014901;28;1196;-66
2021/10/01 12:33:55;;;;;;;;;;;20.30;51.40;;;;;;5015642;28;1261;-66
2021/10/01 12:36:21;;;;;;;;;;;20.30;51.60;;;;;;4998045;28;1427;-66
2021/10/01 12:38:47;;;;;;;;;;;20.30;51.70;;;;;;4997652;28;1951;-66
2021/10/01 12:41:13;;;;;;;;;;;20.30;51.90;;;;;;5014971;28;1324;-66
2021/10/01 12:43:42;;;;;;;;;;;20.30;51.70;;;;;;5015774;28;1054;-66
2021/10/01 12:46:09;;;;;;;;;;;20.30;51.60;;;;;;5014218;28;1827;-66
2021/10/01 12:48:35;;;;;;;;;;;20.30;51.60;;;;;;4995062;28;1996;-66
2021/10/01 12:51:00;;;;;;;;;;;20.30;51.70;;;;;;5025176;28;1542;-66
2021/10/01 12:53:26;;;;;;;;;;;20.30;51.20;;;;;;5021844;28;1352;-66
2021/10/01 12:55:51;;;;;;;;;;;20.30;52.00;;;;;;5013472;28;1346;-66
2021/10/01 12:58:17;;;;;;;;;;;20.30;51.50;;;;;;5014829;28;1906;-66
2021/10/01 13:00:42;;;;;;;;;;;20.30;51.40;;;;;;5014521;28;1357;-66
2021/10/01 13:03:08;;;;;;;;;;;20.30;51.70;;;;;;5015252;28;1065;-65
2021/10/01 13:05:33;;;;;;;;;;;20.30;51.80;;;;;;5015125;28;1386;-66
2021/10/01 13:07:59;;;;;;;;;;;20.20;51.90;;;;;;5014898;28;989;-66
2021/10/01 13:10:48;;;;;;;;;;;20.30;52.20;;;;;;5014720;28;1364;-67
2021/10/01 13:13:18;;;;;;;;;;;20.30;52.10;;;;;;5014865;28;1357;-66
2021/10/01 13:15:43;;;;;;;;;;;20.30;51.90;;;;;;5014733;28;1333;-66
2021/10/01 13:18:23;;;;;;;;;;;20.30;51.50;;;;;;5014857;28;1906;-66
2021/10/01 13:20:48;;;;;;;;;;;20.30;51.90;;;;;;5014242;28;1208;-66
2021/10/01 13:23:15;;;;;;;;;;;20.30;51.60;;;;;;5014446;28;1041;-66
2021/10/01 13:25:45;;;;;;;;;;;20.30;51.60;;;;;;5013866;28;1737;-66
2021/10/01 13:28:10;;;;;;;;;;;20.30;51.30;;;;;;5014460;28;1322;-66
2021/10/01 13:30:36;;;;;;;;;;;20.20;51.50;;;;;;5013909;28;1229;-66
2021/10/01 13:33:02;;;;;;;;;;;20.20;51.70;;;;;;4997089;28;1310;-67
2021/10/01 13:35:27;;;;;;;;;;;20.30;51.60;;;;;;5014443;28;1267;-67
2021/10/01 13:37:52;;;;;;;;;;;20.20;51.60;;;;;;5013884;28;1894;-67
2021/10/01 13:40:18;;;;;;;;;;;20.20;51.60;;;;;;5013800;28;1314;-66
2021/10/01 13:42:43;;;;;;;;;;;20.20;51.30;;;;;;5014118;28;1313;-66
2021/10/01 13:45:09;;;;;;;;;;;20.20;51.70;;;;;;5011054;28;1731;-66
2021/10/01 13:47:34;;;;;;;;;;;20.20;51.20;;;;;;5004276;28;1347;-66
2021/10/01 13:50:00;;;;;;;;;;;20.20;51.40;;;;;;5025351;28;1181;-66
2021/10/01 13:52:26;;;;;;;;;;;20.20;51.50;;;;;;5015115;28;1371;-66
2021/10/01 13:54:51;;;;;;;;;;;20.20;51.40;;;;;;5013768;28;1327;-66
2021/10/01 13:57:17;;;;;;;;;;;20.20;51.60;;;;;;5013363;28;1300;-66
2021/10/01 13:59:42;;;;;;;;;;;20.20;51.40;;;;;;5013593;28;1898;-66
2021/10/01 14:02:08;;;;;;;;;;;20.20;51.50;;;;;;5013370;28;1297;-66
2021/10/01 14:04:34;;;;;;;;;;;20.20;51.50;;;;;;4996337;28;1345;-66
2021/10/01 14:06:59;;;;;;;;;;;20.20;51.30;;;;;;5013135;28;1273;-67
2021/10/01 14:09:24;;;;;;;;;;;20.20;51.40;;;;;;5013657;28;872;-66
2021/10/01 14:11:50;;;;;;;;;;;20.20;51.20;;;;;;5013496;28;1384;-67
2021/10/01 14:14:15;;;;;;;;;;;20.20;51.30;;;;;;5014052;28;1065;-66
2021/10/01 14:16:41;;;;;;;;;;;20.20;50.70;;;;;;5013726;28;1302;-66
2021/10/01 14:19:06;;;;;;;;;;;20.20;50.30;;;;;;5013368;28;1960;-66
2021/10/01 14:21:32;;;;;;;;;;;20.20;51.20;;;;;;4995208;28;1321;-66
2021/10/01 14:23:57;;;;;;;;;;;20.20;50.90;;;;;;5013330;28;962;-66
2021/10/01 14:26:23;;;;;;;;;;;20.20;50.50;;;;;;5013614;28;1305;-66
2021/10/01 14:28:48;;;;;;;;;;;20.20;50.40;;;;;;5013281;28;1281;-67
2021/10/01 14:31:13;;;;;;;;;;;20.20;49.90;;;;;;4995259;28;1734;-67
2021/10/01 14:33:39;;;;;;;;;;;20.20;50.40;;;;;;5013359;28;1282;-67
2021/10/01 14:36:04;;;;;;;;;;;20.20;50.20;;;;;;5013460;28;1268;-67
2021/10/01 14:38:30;;;;;;;;;;;20.20;50.40;;;;;;5012887;28;1898;-67
2021/10/01 14:40:55;;;;;;;;;;;20.20;50.30;;;;;;5012790;28;1322;-67
2021/10/01 14:43:21;;;;;;;;;;;20.20;50.30;;;;;;5013009;28;1281;-67
2021/10/01 14:45:47;;;;;;;;;;;20.20;50.80;;;;;;5013058;28;1343;-67
2021/10/01 14:48:13;;;;;;;;;;;20.20;50.70;;;;;;5013239;28;1053;-67
2021/10/01 14:50:39;;;;;;;;;;;20.20;50.80;;;;;;4994940;28;1332;-66
2021/10/01 14:53:05;;;;;;;;;;;20.20;50.90;;;;;;5012521;28;1353;-67
2021/10/01 14:55:30;;;;;;;;;;;20.20;50.60;;;;;;5013019;28;1307;-67
2021/10/01 14:57:56;;;;;;;;;;;20.20;50.80;;;;;;5012969;28;1950;-67
2021/10/01 15:00:21;;;;;;;;;;;20.20;50.70;;;;;;5012488;28;1380;-66
2021/10/01 15:02:47;;;;;;;;;;;20.20;50.60;;;;;;5013053;28;2227;-66
2021/10/01 15:05:12;;;;;;;;;;;20.20;50.50;;;;;;5022418;28;2262;-66
2021/10/01 15:07:37;;;;;;;;;;;20.20;50.60;;;;;;5021010;28;1204;-66
2021/10/01 15:10:03;;;;;;;;;;;20.20;50.50;;;;;;5011056;28;2016;-66
2021/10/01 15:12:29;;;;;;;;;;;20.20;50.50;;;;;;5014675;28;1982;-66
2021/10/01 15:14:54;;;;;;;;;;;20.20;50.70;;;;;;5020447;28;1837;-66
2021/10/01 15:17:19;;;;;;;;;;;20.20;50.70;;;;;;5016306;28;1404;-66
2021/10/01 15:19:45;;;;;;;;;;;20.20;51.00;;;;;;5023465;28;1906;-66
2021/10/01 15:22:10;;;;;;;;;;;20.10;50.10;;;;;;5023043;28;1578;-66
2021/10/01 15:24:36;;;;;;;;;;;20.20;49.90;;;;;;5018641;28;1668;-66
2021/10/01 15:27:01;;;;;;;;;;;20.20;50.10;;;;;;5016374;28;2297;-66
2021/10/01 15:29:27;;;;;;;;;;;20.20;49.80;;;;;;5012682;28;1952;-66
2021/10/01 15:31:55;;;;;;;;;;;20.10;48.90;;;;;;5012968;28;2056;-66
2021/10/01 15:34:21;;;;;;;;;;;20.10;49.40;;;;;;5019032;28;1533;-67
2021/10/01 15:36:46;;;;;;;;;;;20.10;49.50;;;;;;5017265;28;1366;-67
2021/10/01 15:39:12;;;;;;;;;;;20.10;50.40;;;;;;5031171;28;1945;-66
2021/10/01 15:41:37;;;;;;;;;;;20.10;50.40;;;;;;5011767;28;1073;-66
2021/10/01 15:44:03;;;;;;;;;;;20.10;50.20;;;;;;5012571;28;1222;-66
2021/10/01 15:46:28;;;;;;;;;;;20.10;50.50;;;;;;5012877;28;1589;-66
2021/10/01 15:48:54;;;;;;;;;;;20.10;50.50;;;;;;5006951;28;1951;-66
2021/10/01 15:51:19;;;;;;;;;;;20.10;50.50;;;;;;5018718;28;1123;-67
2021/10/01 15:53:45;;;;;;;;;;;20.10;50.60;;;;;;5023101;28;1111;-67
2021/10/01 15:56:10;;;;;;;;;;;20.10;51.00;;;;;;5012401;28;1280;-67
2021/10/01 15:58:35;;;;;;;;;;;20.10;51.10;;;;;;5012277;28;1955;-67